createdAt,value
2019-04-16T00:04:31.185Z,32.23
2019-04-16T00:09:39.540Z,26.73
2019-04-16T00:14:47.949Z,26.63
2019-04-16T00:19:51.557Z,30.80
2019-04-16T00:24:55.728Z,30.30
2019-04-16T00:30:04.117Z,27.80
2019-04-16T00:35:05.980Z,28.10
2019-04-16T00:40:09.922Z,27.87
2019-04-16T00:45:13.748Z,30.73
2019-04-16T00:50:17.686Z,30.47
2019-04-16T00:55:21.417Z,32.17
2019-04-16T01:00:27.707Z,33.43
2019-04-16T01:05:35.031Z,31.87
2019-04-16T01:10:36.210Z,31.67
2019-04-16T01:15:39.797Z,32.53
2019-04-16T01:20:44.048Z,32.93
2019-04-16T01:25:47.653Z,31.57
2019-04-16T01:30:53.373Z,34.23
2019-04-16T01:36:11.108Z,37.30
2019-04-16T01:41:16.411Z,35.80
2019-04-16T01:46:20.001Z,39.17
2019-04-16T01:51:23.658Z,36.17
2019-04-16T01:56:28.814Z,33.17
2019-04-16T02:01:33.102Z,32.30
2019-04-16T02:06:37.137Z,32.60
2019-04-16T02:11:41.465Z,35.77
2019-04-16T02:16:46.097Z,36.93
2019-04-16T02:21:50.045Z,33.37
2019-04-16T02:26:54.843Z,34.50
2019-04-16T02:31:59.179Z,34.57
2019-04-16T02:37:03.494Z,37.47
2019-04-16T02:42:07.309Z,35.93
2019-04-16T02:47:11.293Z,42.07
2019-04-16T02:52:34.381Z,39.07
2019-04-16T02:57:39.943Z,39.60
2019-04-16T03:02:48.136Z,40.43
2019-04-16T03:07:51.856Z,39.70
2019-04-16T03:12:55.898Z,40.27
2019-04-16T03:17:59.487Z,39.17
2019-04-16T03:23:06.111Z,39.17
2019-04-16T03:28:08.938Z,36.70
2019-04-16T03:33:14.803Z,39.87
2019-04-16T03:38:18.014Z,41.40
2019-04-16T03:43:21.623Z,38.27
2019-04-16T03:48:25.290Z,38.67
2019-04-16T03:53:29.338Z,42.97
2019-04-16T03:58:35.568Z,39.17
2019-04-16T04:03:38.672Z,41.57
2019-04-16T04:08:42.327Z,38.57
2019-04-16T04:13:49.680Z,43.37
2019-04-16T04:18:51.236Z,40.93
2019-04-16T04:23:57.508Z,42.50
2019-04-16T04:29:00.072Z,47.70
2019-04-16T04:34:04.144Z,42.33
2019-04-16T04:39:09.951Z,38.80
2019-04-16T04:44:12.991Z,37.83
2019-04-16T04:49:16.657Z,40.27
2019-04-16T04:54:22.353Z,39.43
2019-04-16T04:59:26.137Z,45.87
2019-04-16T05:04:31.441Z,42.27
2019-04-16T05:09:36.495Z,42.37
2019-04-16T05:14:42.063Z,44.40
2019-04-16T05:19:45.654Z,46.23
2019-04-16T05:24:49.248Z,42.77
2019-04-16T05:29:52.833Z,41.40
2019-04-16T05:34:56.459Z,45.80
2019-04-16T05:40:00.073Z,46.60
2019-04-16T05:45:06.297Z,42.90
2019-04-16T05:50:10.220Z,47.57
2019-04-16T05:55:19.362Z,42.87
2019-04-16T06:00:27.576Z,46.10
2019-04-16T06:05:31.252Z,40.90
2019-04-16T06:10:34.984Z,40.47
2019-04-16T06:15:56.737Z,42.70
2019-04-16T06:21:07.961Z,40.33
2019-04-16T06:26:22.124Z,38.60
2019-04-16T06:31:45.903Z,40.97
2019-04-16T06:36:56.858Z,38.63
2019-04-16T06:42:02.246Z,41.80
2019-04-16T06:47:11.116Z,39.07
2019-04-16T06:52:33.894Z,36.43
2019-04-16T06:57:45.299Z,35.73
2019-04-16T07:03:02.136Z,40.60
2019-04-16T07:07:59.997Z,37.93
2019-04-16T07:13:03.765Z,39.23
2019-04-16T07:18:07.353Z,38.77
2019-04-16T07:23:10.985Z,36.20
2019-04-16T07:28:32.679Z,36.00
2019-04-16T07:33:40.809Z,32.53
2019-04-16T07:38:52.077Z,29.30
2019-04-16T07:44:12.308Z,33.83
2019-04-16T07:49:33.553Z,34.03
2019-04-16T07:54:47.795Z,41.40
2019-04-16T07:59:51.389Z,23.27
2019-04-16T08:04:55.005Z,21.50
2019-04-16T08:10:02.051Z,20.93
2019-04-16T08:15:13.771Z,22.93
2019-04-16T08:20:10.156Z,19.57
2019-04-16T08:25:14.349Z,18.63
2019-04-16T08:30:18.008Z,16.97
2019-04-16T08:35:21.982Z,15.80
2019-04-16T08:40:25.649Z,13.60
2019-04-16T08:45:29.312Z,12.87
2019-04-16T08:50:32.914Z,15.10
2019-04-16T08:55:36.608Z,12.17
2019-04-16T09:00:45.907Z,11.43
2019-04-16T09:05:47.036Z,9.90
2019-04-16T09:10:50.712Z,10.07
2019-04-16T09:15:54.505Z,11.53
2019-04-16T09:20:58.172Z,10.53
2019-04-16T09:26:15.413Z,11.63
2019-04-16T09:31:31.116Z,10.67
2019-04-16T09:36:52.804Z,10.43
2019-04-16T09:41:56.478Z,14.07
2019-04-16T09:47:00.624Z,12.00
2019-04-16T09:52:04.252Z,11.03
2019-04-16T09:57:07.841Z,14.13
2019-04-16T10:02:13.147Z,13.87
2019-04-16T10:07:16.811Z,14.80
2019-04-16T10:12:20.471Z,14.27
2019-04-16T10:17:24.467Z,15.40
2019-04-16T10:22:29.533Z,14.20
2019-04-16T10:27:34.771Z,16.97
2019-04-16T10:32:38.451Z,14.40
2019-04-16T10:37:42.058Z,11.90
2019-04-16T10:43:03.703Z,13.50
2019-04-16T10:48:17.950Z,11.10
2019-04-16T10:53:39.447Z,12.27
2019-04-16T10:58:47.385Z,12.80
2019-04-16T11:03:55.553Z,14.73
2019-04-16T11:08:59.204Z,12.47
2019-04-16T11:14:02.871Z,11.20
2019-04-16T11:19:07.982Z,15.87
2019-04-16T11:24:11.821Z,11.80
2019-04-16T11:29:15.452Z,11.50
2019-04-16T11:34:19.126Z,11.07
2019-04-16T11:39:23.133Z,13.40
2019-04-16T11:44:27.145Z,14.10
2019-04-16T11:49:30.709Z,11.40
2019-04-16T11:54:34.383Z,11.73
2019-04-16T11:59:38.386Z,10.97
2019-04-16T12:04:43.822Z,11.67
2019-04-16T12:09:58.557Z,9.07
2019-04-16T12:15:03.936Z,9.60
2019-04-16T12:20:09.715Z,9.67
2019-04-16T12:25:31.804Z,11.90
2019-04-16T12:30:46.181Z,9.47
2019-04-16T12:35:57.959Z,10.37
2019-04-16T12:41:20.158Z,10.67
2019-04-16T12:46:25.528Z,11.47
2019-04-16T12:51:47.145Z,12.93
2019-04-16T13:02:24.887Z,10.77
2019-04-16T13:07:30.341Z,10.03
2019-04-16T13:12:51.747Z,10.67
2019-04-16T13:18:02.722Z,8.87
2019-04-16T13:23:10.410Z,9.43
2019-04-16T13:28:14.061Z,9.57
2019-04-16T13:33:17.729Z,10.20
2019-04-16T13:38:23.092Z,8.67
2019-04-16T13:43:46.726Z,9.97
2019-04-16T13:48:59.859Z,8.57
2019-04-16T13:54:08.669Z,8.73
2019-04-16T13:59:31.117Z,11.03
2019-04-16T14:04:36.957Z,9.70
2019-04-16T14:09:39.829Z,10.33
2019-04-16T14:14:43.641Z,10.93
2019-04-16T14:19:47.398Z,8.53
2019-04-16T14:24:51.141Z,8.87
2019-04-16T14:29:54.814Z,9.27
2019-04-16T14:35:00.807Z,10.43
2019-04-16T14:40:08.608Z,9.10
2019-04-16T14:45:19.854Z,9.67
2019-04-16T14:50:24.467Z,8.73
2019-04-16T14:55:32.542Z,9.30
2019-04-16T15:00:43.888Z,9.90
2019-04-16T15:06:00.751Z,10.10
2019-04-16T15:11:18.685Z,8.63
2019-04-16T15:16:26.976Z,7.87
2019-04-16T15:21:32.365Z,8.57
2019-04-16T15:26:40.664Z,11.37
2019-04-16T15:31:55.518Z,13.07
2019-04-16T15:37:06.784Z,8.80
2019-04-16T15:42:28.569Z,9.90
2019-04-16T15:47:33.910Z,8.60
2019-04-16T15:52:46.440Z,10.17
2019-04-16T15:58:09.731Z,13.47
2019-04-16T16:03:31.726Z,9.73
2019-04-16T16:08:37.432Z,10.60
2019-04-16T16:13:41.094Z,9.37
2019-04-16T16:18:44.774Z,10.83
2019-04-16T16:23:48.701Z,10.27
2019-04-16T16:28:52.450Z,9.73
2019-04-16T16:33:56.442Z,20.73
2019-04-16T16:39:00.015Z,18.17
2019-04-16T16:44:04.009Z,14.37
2019-04-16T16:49:07.754Z,16.93
2019-04-16T16:54:19.133Z,18.17
2019-04-16T16:59:24.372Z,13.83
2019-04-16T17:04:29.744Z,12.57
2019-04-16T17:09:34.353Z,16.30
2019-04-16T17:14:38.427Z,12.10
2019-04-16T17:19:42.162Z,11.90
2019-04-16T17:24:45.827Z,9.50
2019-04-16T17:29:50.885Z,9.87
2019-04-16T17:34:54.640Z,10.90
2019-04-16T17:40:00.262Z,11.33
2019-04-16T17:45:23.585Z,9.20
2019-04-16T17:50:29.280Z,10.87
2019-04-16T17:55:40.340Z,11.23
2019-04-16T18:01:01.187Z,11.73
2019-04-16T18:06:06.736Z,16.60
2019-04-16T18:11:17.943Z,18.33
2019-04-16T18:16:35.602Z,14.40
2019-04-16T18:21:41.050Z,25.83
2019-04-16T18:26:46.521Z,15.90
2019-04-16T18:31:52.488Z,17.17
2019-04-16T18:37:01.671Z,12.87
2019-04-16T18:42:07.160Z,14.17
2019-04-16T18:47:18.222Z,11.80
2019-04-16T18:52:22.083Z,11.97
2019-04-16T18:57:25.907Z,23.80
2019-04-16T19:02:30.923Z,19.63
2019-04-16T19:07:34.597Z,13.03
2019-04-16T19:12:38.595Z,9.67
2019-04-16T19:17:42.679Z,14.50
2019-04-16T19:22:46.497Z,10.90
2019-04-16T19:27:51.540Z,11.30
2019-04-16T19:33:00.171Z,11.03
2019-04-16T19:38:02.318Z,11.87
2019-04-16T19:43:05.892Z,11.53
2019-04-16T19:48:09.603Z,13.90
2019-04-16T19:53:14.958Z,11.60
2019-04-16T19:58:18.754Z,12.00
2019-04-16T20:03:22.539Z,13.30
2019-04-16T20:08:26.210Z,12.80
2019-04-16T20:13:30.244Z,14.87
2019-04-16T20:18:49.934Z,15.63
2019-04-16T20:23:39.910Z,14.10
2019-04-16T20:28:45.369Z,18.40
2019-04-16T20:33:48.889Z,21.57
2019-04-16T20:38:52.560Z,17.87
2019-04-16T20:43:56.193Z,19.00
2019-04-16T20:49:09.104Z,22.53
2019-04-16T20:54:05.375Z,21.77
2019-04-16T20:59:08.973Z,18.83
2019-04-16T21:04:13.096Z,20.03
2019-04-16T21:09:16.699Z,18.37
2019-04-16T21:14:21.781Z,17.90
2019-04-16T21:19:27.876Z,19.00
2019-04-16T21:24:31.918Z,18.40
2019-04-16T21:29:36.694Z,15.70
2019-04-16T21:34:48.357Z,16.60
2019-04-16T21:39:53.998Z,18.07
2019-04-16T21:44:58.105Z,19.03
2019-04-16T21:50:02.473Z,18.97
2019-04-16T21:55:07.329Z,17.33
2019-04-16T22:00:23.461Z,16.97
2019-04-16T22:05:27.218Z,16.33
2019-04-16T22:10:30.812Z,19.63
2019-04-16T22:15:34.694Z,17.83
2019-04-16T22:20:38.439Z,19.70
2019-04-16T22:25:42.046Z,18.43
2019-04-16T22:30:45.771Z,23.27
2019-04-16T22:35:51.049Z,18.77
2019-04-16T22:40:59.501Z,20.00
2019-04-16T22:46:04.878Z,20.10
2019-04-16T22:51:10.404Z,18.20
2019-04-16T22:56:13.785Z,16.97
2019-04-16T23:01:19.187Z,16.97
2019-04-16T23:06:23.211Z,16.03
2019-04-16T23:11:26.950Z,17.67
2019-04-16T23:16:30.549Z,16.70
2019-04-16T23:21:34.582Z,15.93
2019-04-16T23:26:38.241Z,15.17
2019-04-16T23:31:41.919Z,15.10
2019-04-16T23:36:48.617Z,14.63
2019-04-16T23:41:51.003Z,14.43
2019-04-16T23:46:59.049Z,14.43
2019-04-16T23:52:13.294Z,15.27
2019-04-16T23:57:27.347Z,12.13
